Time;durP1;ratioP1;P1;durP2;ratioP2;P2;SDS_P1;SDS_P2;PMS_P1;PMS_P2;Temp;Humidity;BMP_temperature;BMP_pressure;BME280_temperature;BME280_humidity;BME280_pressure;Samples;Min_cycle;Max_cycle;Signal;HPM_P1;HPM_P2
2022/07/10 00:02:13;;;;;;;7.30;4.60;;;;;;;17.30;78.97;98934.19;104937;1277;139894;-66
2022/07/10 00:04:40;;;;;;;8.70;5.10;;;;;;;17.28;79.05;98928.36;104911;1277;22780;-66
2022/07/10 00:07:07;;;;;;;9.30;4.80;;;;;;;17.27;79.16;98926.64;104955;1275;138058;-66
2022/07/10 00:09:33;;;;;;;8.10;5.40;;;;;;;17.27;79.07;98929.62;105100;1274;23158;-65
2022/07/10 00:12:00;;;;;;;6.80;5.00;;;;;;;17.23;78.88;98931.46;105036;1277;22581;-65
2022/07/10 00:14:27;;;;;;;5.90;4.50;;;;;;;17.18;79.01;98935.61;105060;1277;138409;-65
2022/07/10 00:16:54;;;;;;;10.60;4.60;;;;;;;17.13;78.93;98941.00;105062;1275;25528;-66
2022/07/10 00:19:21;;;;;;;7.70;4.30;;;;;;;17.07;79.04;98943.67;104913;1275;139987;-66
2022/07/10 00:21:47;;;;;;;6.60;5.00;;;;;;;17.02;79.22;98945.79;105041;1277;24455;-65
2022/07/10 00:24:14;;;;;;;8.40;5.00;;;;;;;16.98;79.31;98945.19;104889;1277;139201;-65
2022/07/10 00:26:41;;;;;;;5.10;4.30;;;;;;;16.95;79.47;98946.06;105065;1274;22568;-65
2022/07/10 00:29:08;;;;;;;5.80;4.30;;;;;;;16.93;79.47;98946.66;104895;1277;22617;-65
2022/07/10 00:31:35;;;;;;;8.30;4.80;;;;;;;16.92;79.58;98945.27;104925;1277;138115;-65
2022/07/10 00:34:02;;;;;;;5.90;3.90;;;;;;;16.91;79.70;98941.83;105086;1277;22603;-66
2022/07/10 00:36:29;;;;;;;5.10;3.60;;;;;;;16.91;79.78;98941.44;104972;1277;141668;-65
2022/07/10 00:38:56;;;;;;;5.90;4.20;;;;;;;16.90;79.90;98939.81;105001;1277;24298;-66
2022/07/10 00:41:22;;;;;;;5.70;4.20;;;;;;;16.91;79.90;98943.73;104987;1277;23174;-64
2022/07/10 00:44:00;;;;;;;7.10;4.30;;;;;;;16.90;79.74;98939.20;104999;1277;138118;-66
2022/07/10 00:46:27;;;;;;;5.20;4.20;;;;;;;16.87;79.77;98939.44;105083;1277;22574;-64
2022/07/10 00:48:54;;;;;;;5.30;4.20;;;;;;;16.85;79.83;98932.52;104912;1277;138087;-66
2022/07/10 00:51:25;;;;;;;6.10;4.30;;;;;;;16.82;79.79;98928.02;105160;1277;24237;-64
2022/07/10 00:53:52;;;;;;;6.60;4.40;;;;;;;16.81;79.88;98925.41;108848;1277;22548;-65
2022/07/10 00:56:24;;;;;;;8.00;4.10;;;;;;;16.78;79.88;98927.23;106288;1277;138378;-65
2022/07/10 00:58:51;;;;;;;9.40;4.20;;;;;;;16.75;79.99;98929.35;105055;1277;22782;-65
2022/07/10 01:01:18;;;;;;;9.50;4.60;;;;;;;16.74;79.85;98930.77;104979;1277;139138;-66
2022/07/10 01:03:45;;;;;;;5.10;3.70;;;;;;;16.72;80.03;98932.96;105110;1277;25544;-64
2022/07/10 01:06:13;;;;;;;5.10;3.90;;;;;;;16.71;80.02;98935.96;109183;1274;138589;-64
2022/07/10 01:08:40;;;;;;;7.80;3.70;;;;;;;16.70;79.92;98934.21;109283;1276;22469;-66
2022/07/10 01:11:08;;;;;;;7.30;3.40;;;;;;;16.69;79.89;98934.23;109309;1274;22461;-66
2022/07/10 01:13:34;;;;;;;5.10;3.70;;;;;;;16.69;79.92;98933.91;109217;1277;138127;-66
2022/07/10 01:16:01;;;;;;;6.20;3.40;;;;;;;16.68;79.96;98928.38;109221;1277;22467;-66
2022/07/10 01:18:28;;;;;;;9.30;3.90;;;;;;;16.68;79.92;98927.11;109226;1274;139544;-65
2022/07/10 01:20:56;;;;;;;6.40;3.50;;;;;;;16.68;79.91;98927.39;109386;1274;23227;-65
2022/07/10 01:23:23;;;;;;;7.40;3.60;;;;;;;16.67;79.79;98924.98;109303;1275;22455;-65
2022/07/10 01:25:49;;;;;;;4.90;3.30;;;;;;;16.66;79.94;98926.77;109224;1275;139203;-66
2022/07/10 01:28:17;;;;;;;5.10;3.40;;;;;;;16.66;79.90;98926.11;109279;1276;23239;-66
2022/07/10 01:30:44;;;;;;;5.70;3.80;;;;;;;16.65;79.77;98920.58;109162;1276;138271;-66
2022/07/10 01:33:10;;;;;;;4.60;3.70;;;;;;;16.64;79.75;98916.42;109344;1276;22404;-66
2022/07/10 01:35:38;;;;;;;5.50;3.30;;;;;;;16.63;79.62;98913.75;109330;1274;23139;-66
2022/07/10 01:38:05;;;;;;;6.40;3.60;;;;;;;16.59;79.58;98907.59;109214;1276;139732;-67
2022/07/10 01:40:32;;;;;;;7.60;3.90;;;;;;;16.57;79.62;98903.26;106762;1277;25396;-66
2022/07/10 01:42:59;;;;;;;4.30;3.50;;;;;;;16.55;79.57;98903.42;104990;1274;138198;-67
2022/07/10 01:45:26;;;;;;;6.80;3.20;;;;;;;16.51;79.76;98899.22;105050;1277;24302;-66
2022/07/10 01:47:53;;;;;;;7.10;3.40;;;;;;;16.48;79.79;98894.65;105172;1277;22714;-66
2022/07/10 01:50:19;;;;;;;4.10;3.40;;;;;;;16.44;79.88;98895.42;105060;1275;138608;-66
2022/07/10 01:52:46;;;;;;;7.40;3.50;;;;;;;16.42;80.01;98895.37;105171;1274;22557;-67
2022/07/10 01:55:13;;;;;;;5.70;3.20;;;;;;;16.40;80.11;98898.88;105111;1274;139821;-66
2022/07/10 01:57:40;;;;;;;5.50;3.50;;;;;;;16.37;80.10;98897.23;105157;1274;23202;-67
2022/07/10 02:00:07;;;;;;;5.50;3.30;;;;;;;16.35;80.00;98897.79;105198;1277;22605;-66
2022/07/10 02:02:41;;;;;;;4.20;2.90;;;;;;;16.30;80.06;98898.73;109361;1274;22346;-65
2022/07/10 02:05:08;;;;;;;4.60;3.10;;;;;;;16.25;79.95;98903.24;109361;1274;22606;-65
2022/07/10 02:07:35;;;;;;;4.70;3.30;;;;;;;16.19;80.03;98896.50;109240;1274;138008;-66
2022/07/10 02:10:01;;;;;;;3.90;3.20;;;;;;;16.15;80.05;98899.14;109373;1274;22486;-66
2022/07/10 02:12:28;;;;;;;4.00;3.10;;;;;;;16.10;80.33;98894.59;109274;1274;139044;-65
2022/07/10 02:14:59;;;;;;;4.00;3.30;;;;;;;16.08;80.60;98895.33;109408;1274;23607;-66
2022/07/10 02:17:26;;;;;;;4.60;3.90;;;;;;;16.07;80.78;98893.59;109341;1274;22413;-65
2022/07/10 02:19:52;;;;;;;5.60;4.00;;;;;;;16.04;80.93;98891.30;109271;1274;138592;-65
2022/07/10 02:22:19;;;;;;;7.10;3.50;;;;;;;16.01;81.18;98888.52;109303;1274;22593;-67
2022/07/10 02:24:46;;;;;;;6.70;3.90;;;;;;;15.96;81.36;98889.50;109233;1276;139225;-66
2022/07/10 02:27:13;;;;;;;8.30;4.30;;;;;;;15.90;81.75;98890.46;109340;1275;22500;-65
2022/07/10 02:29:39;;;;;;;5.10;3.80;;;;;;;15.85;82.07;98887.72;109389;1274;22444;-65
2022/07/10 02:32:07;;;;;;;5.90;4.00;;;;;;;15.82;82.31;98884.42;109229;1274;139306;-65
2022/07/10 02:34:34;;;;;;;7.60;4.00;;;;;;;15.79;82.55;98878.83;109254;1276;22265;-65
2022/07/10 02:37:00;;;;;;;6.70;4.20;;;;;;;15.76;82.82;98878.88;109148;1275;139500;-65
2022/07/10 02:39:27;;;;;;;6.00;4.60;;;;;;;15.72;83.02;98876.08;109323;1276;23142;-65
2022/07/10 02:41:54;;;;;;;8.10;4.50;;;;;;;15.69;83.27;98873.95;109299;1277;22468;-65
2022/07/10 02:44:21;;;;;;;10.90;4.60;;;;;;;15.67;83.53;98867.68;109306;1274;140406;-66
2022/07/10 02:46:49;;;;;;;7.80;4.40;;;;;;;15.65;83.66;98864.08;109360;1275;22475;-66
2022/07/10 02:49:16;;;;;;;5.80;4.20;;;;;;;15.65;83.86;98860.07;109228;1274;140504;-66
2022/07/10 02:51:42;;;;;;;7.20;4.70;;;;;;;15.67;83.89;98862.67;109291;1276;22562;-66
2022/07/10 02:54:09;;;;;;;6.40;4.80;;;;;;;15.67;84.06;98861.80;109245;1274;138626;-65
2022/07/10 02:56:36;;;;;;;7.40;5.20;;;;;;;15.68;84.16;98858.65;109262;1275;22491;-66
2022/07/10 02:59:03;;;;;;;8.60;4.40;;;;;;;15.70;84.18;98858.27;109258;1276;22664;-66
2022/07/10 03:01:29;;;;;;;11.30;4.90;;;;;;;15.72;84.15;98864.54;109184;1276;138389;-66
2022/07/10 03:03:56;;;;;;;9.30;5.60;;;;;;;15.75;84.16;98862.16;109315;1276;22419;-67
2022/07/10 03:06:23;;;;;;;10.00;5.60;;;;;;;15.76;84.17;98864.60;109152;1275;140000;-66
2022/07/10 03:08:50;;;;;;;10.20;6.40;;;;;;;15.77;84.11;98862.67;109285;1274;22426;-67
2022/07/10 03:11:17;;;;;;;9.10;5.90;;;;;;;15.78;84.16;98864.79;109285;1276;22466;-66
2022/07/10 03:13:43;;;;;;;11.00;6.40;;;;;;;15.79;84.19;98865.48;109277;1274;138905;-66
2022/07/10 03:16:10;;;;;;;9.60;6.40;;;;;;;15.79;84.14;98865.09;109290;1276;22530;-66
2022/07/10 03:18:37;;;;;;;7.90;5.80;;;;;;;15.84;84.16;98864.23;109241;1275;138328;-66
2022/07/10 03:21:04;;;;;;;8.30;6.20;;;;;;;15.87;84.01;98869.14;109273;1274;22441;-66
2022/07/10 03:23:31;;;;;;;10.00;6.00;;;;;;;15.90;83.86;98871.00;109297;1275;22441;-66
2022/07/10 03:25:58;;;;;;;7.30;5.10;;;;;;;15.92;83.73;98870.64;109202;1276;139403;-66
2022/07/10 03:28:25;;;;;;;10.60;5.80;;;;;;;15.95;83.61;98868.15;109239;1276;22655;-66
2022/07/10 03:30:51;;;;;;;8.40;5.00;;;;;;;16.00;83.49;98873.44;109197;1275;140829;-66
2022/07/10 03:33:18;;;;;;;12.30;5.90;;;;;;;16.04;83.25;98871.08;109394;1274;22479;-66
2022/07/10 03:35:45;;;;;;;7.80;4.90;;;;;;;16.09;83.08;98871.41;109309;1274;22531;-65
2022/07/10 03:38:12;;;;;;;6.90;4.90;;;;;;;16.14;82.94;98871.70;109336;1274;139098;-65
2022/07/10 03:40:38;;;;;;;8.70;4.50;;;;;;;16.20;82.76;98871.30;109342;1274;22466;-65
2022/07/10 03:43:05;;;;;;;7.30;4.60;;;;;;;16.26;82.49;98883.89;109168;1277;137847;-65
2022/07/10 03:45:32;;;;;;;7.20;4.70;;;;;;;16.30;82.26;98879.86;109320;1277;22450;-66
2022/07/10 03:47:59;;;;;;;8.80;5.00;;;;;;;16.35;82.08;98883.49;109597;1274;22428;-64
2022/07/10 03:50:26;;;;;;;7.30;5.10;;;;;;;16.40;81.78;98886.20;109376;1276;138542;-64
2022/07/10 03:52:52;;;;;;;5.80;4.00;;;;;;;16.41;81.54;98886.43;108188;1277;25334;-63
2022/07/10 03:55:19;;;;;;;6.90;4.80;;;;;;;16.44;81.39;98889.11;105051;1277;139342;-64
2022/07/10 03:57:56;;;;;;;8.60;4.60;;;;;;;16.48;81.20;98891.20;105121;1277;22593;-65
2022/07/10 04:00:24;;;;;;;7.50;4.10;;;;;;;16.53;81.00;98885.03;104841;1275;298023;-65
2022/07/10 04:04:36;;;;;;;8.30;4.00;;;;;;;16.63;80.93;98881.27;101912;1309;545829;-65
2022/07/10 04:07:04;;;;;;;5.20;4.20;;;;;;;16.68;80.84;98878.60;104076;1284;138678;-65
2022/07/10 04:09:31;;;;;;;4.50;3.40;;;;;;;16.74;80.67;98880.47;103654;1289;25459;-64
2022/07/10 04:11:58;;;;;;;7.00;4.40;;;;;;;16.79;80.35;98876.89;103793;1289;22616;-64
2022/07/10 04:14:25;;;;;;;7.00;3.90;;;;;;;16.83;80.24;98876.95;103737;1289;138008;-65
2022/07/10 04:16:52;;;;;;;5.20;4.00;;;;;;;16.86;80.11;98874.06;103858;1288;25411;-65
2022/07/10 04:19:18;;;;;;;5.40;4.20;;;;;;;16.88;79.92;98870.46;103802;1286;223940;-65
2022/07/10 04:21:45;;;;;;;5.60;3.70;;;;;;;16.90;79.87;98868.36;103944;1287;23889;-65
2022/07/10 04:24:12;;;;;;;5.20;4.20;;;;;;;16.92;79.40;98866.08;103908;1286;138309;-64
2022/07/10 04:26:39;;;;;;;7.00;3.80;;;;;;;16.92;79.18;98866.17;104143;1286;22622;-65
2022/07/10 04:29:05;;;;;;;5.30;3.90;;;;;;;16.90;78.86;98869.46;104089;1287;26560;-65
2022/07/10 04:31:32;;;;;;;4.70;3.50;;;;;;;16.88;78.84;98872.52;103948;1286;138581;-64
2022/07/10 04:33:59;;;;;;;7.80;4.00;;;;;;;16.88;78.80;98871.34;104055;1288;27575;-65
2022/07/10 04:36:26;;;;;;;4.10;3.50;;;;;;;16.91;78.82;98867.75;103927;1287;137803;-64
2022/07/10 04:38:53;;;;;;;8.30;3.90;;;;;;;16.94;78.40;98870.36;103973;1287;22754;-65
2022/07/10 04:41:20;;;;;;;4.50;3.50;;;;;;;16.97;78.02;98869.27;103940;1287;25290;-66
2022/07/10 04:43:46;;;;;;;4.30;3.90;;;;;;;16.99;77.62;98866.52;103898;1287;138651;-65
2022/07/10 04:46:13;;;;;;;6.60;3.90;;;;;;;17.02;77.54;98864.13;103929;1286;23548;-65
2022/07/10 04:48:40;;;;;;;4.00;3.60;;;;;;;17.06;77.75;98862.29;103879;1286;138266;-65
2022/07/10 04:51:08;;;;;;;5.10;3.60;;;;;;;17.10;77.42;98858.37;104133;1286;22719;-66
2022/07/10 04:53:35;;;;;;;5.00;3.30;;;;;;;17.15;77.44;98858.39;104201;1286;22679;-66
2022/07/10 04:56:02;;;;;;;7.90;3.90;;;;;;;17.21;77.11;98858.77;103845;1288;137705;-63
2022/07/10 04:58:29;;;;;;;4.10;3.40;;;;;;;17.26;76.77;98861.14;104850;1279;22657;-66
2022/07/10 05:00:55;;;;;;;6.30;3.20;;;;;;;17.30;76.55;98859.10;104745;1279;137809;-66
2022/07/10 05:03:22;;;;;;;4.10;3.30;;;;;;;17.35;76.36;98860.83;104751;1277;24687;-66
2022/07/10 05:05:49;;;;;;;7.50;3.70;;;;;;;17.42;76.39;98861.74;104769;1278;25224;-66
2022/07/10 05:08:16;;;;;;;4.10;3.40;;;;;;;17.51;76.17;98861.23;104715;1279;138276;-66
2022/07/10 05:10:43;;;;;;;5.20;3.40;;;;;;;17.60;75.68;98860.88;104674;1279;25389;-66
2022/07/10 05:13:11;;;;;;;4.80;3.40;;;;;;;17.69;75.46;98861.81;104597;1279;137702;-65
2022/07/10 05:15:38;;;;;;;9.40;3.90;;;;;;;17.81;75.06;98860.02;104621;1279;22627;-65
2022/07/10 05:18:05;;;;;;;4.00;3.10;;;;;;;17.96;74.68;98862.19;108934;1279;22495;-66
2022/07/10 05:20:33;;;;;;;5.10;3.00;;;;;;;18.16;73.92;98865.83;108879;1279;137918;-66
2022/07/10 05:23:00;;;;;;;6.10;3.90;;;;;;;18.36;72.69;98861.19;108933;1279;22530;-67
2022/07/10 05:25:30;;;;;;;6.40;3.50;;;;;;;18.55;71.91;98857.38;108800;1279;137495;-65
2022/07/10 05:27:57;;;;;;;5.00;3.10;;;;;;;18.76;71.51;98854.64;108925;1279;22475;-66
2022/07/10 05:30:24;;;;;;;4.90;3.30;;;;;;;19.08;71.17;98854.03;108847;1279;139820;-65
2022/07/10 05:32:50;;;;;;;4.70;3.30;;;;;;;19.42;69.73;98853.52;108876;1279;23686;-65
2022/07/10 05:35:17;;;;;;;5.60;3.10;;;;;;;19.73;68.75;98846.82;108884;1279;22574;-65
2022/07/10 05:37:44;;;;;;;6.00;2.80;;;;;;;19.96;68.08;98853.60;108707;1279;139051;-66
2022/07/10 05:40:11;;;;;;;6.90;3.00;;;;;;;20.20;67.56;98851.43;108857;1279;22465;-66
2022/07/10 05:42:38;;;;;;;5.40;2.80;;;;;;;20.52;66.51;98850.19;108729;1279;138173;-66
2022/07/10 05:45:06;;;;;;;5.70;3.60;;;;;;;20.81;65.19;98850.05;108848;1279;22530;-66
2022/07/10 05:47:33;;;;;;;5.30;3.20;;;;;;;21.06;64.05;98848.79;107394;1279;25092;-66
2022/07/10 05:50:00;;;;;;;8.10;2.50;;;;;;;21.25;63.14;98842.23;104561;1279;137549;-64
2022/07/10 05:52:27;;;;;;;6.80;3.40;;;;;;;21.36;62.39;98837.30;104678;1279;24420;-65
2022/07/10 05:54:58;;;;;;;12.10;3.30;;;;;;;21.38;61.99;98839.35;104511;1281;138190;-65
2022/07/10 05:57:25;;;;;;;6.80;3.20;;;;;;;21.35;62.07;98833.38;104999;1279;23995;-65
2022/07/10 05:59:52;;;;;;;5.40;3.00;;;;;;;21.28;62.37;98835.00;104728;1279;22711;-65
2022/07/10 06:02:19;;;;;;;5.20;3.30;;;;;;;21.26;62.31;98838.02;104760;1279;137031;-65
2022/07/10 06:04:51;;;;;;;4.30;2.80;;;;;;;21.20;62.01;98838.45;104726;1279;22746;-65
2022/07/10 06:07:18;;;;;;;3.50;3.00;;;;;;;21.12;61.94;98837.90;104493;1279;137083;-64
2022/07/10 06:09:44;;;;;;;4.60;2.80;;;;;;;21.04;62.26;98839.92;104698;1279;22747;-64
2022/07/10 06:12:11;;;;;;;3.80;2.80;;;;;;;20.98;62.32;98840.09;104521;1280;139573;-63
2022/07/10 06:14:38;;;;;;;4.00;3.00;;;;;;;20.90;62.01;98837.14;104738;1280;25542;-64
2022/07/10 06:17:05;;;;;;;5.70;2.90;;;;;;;20.80;62.57;98839.23;104649;1278;22836;-65
2022/07/10 06:19:31;;;;;;;8.30;2.90;;;;;;;20.71;62.97;98838.07;104658;1278;139889;-65
2022/07/10 06:24:44;;;;;;;5.60;2.80;;;;;;;20.55;63.01;98835.16;104638;1279;139326;-65
2022/07/10 06:27:11;;;;;;;7.80;3.20;;;;;;;20.46;63.27;98833.14;104828;1278;22573;-67
2022/07/10 06:29:37;;;;;;;3.10;2.50;;;;;;;20.41;63.48;98839.11;104697;1279;25502;-68
2022/07/10 06:32:05;;;;;;;7.20;2.80;;;;;;;20.38;63.66;98836.88;104627;1279;137814;-67
2022/07/10 06:34:32;;;;;;;5.00;2.50;;;;;;;20.39;63.70;98832.39;104596;1281;24316;-65
2022/07/10 06:36:58;;;;;;;4.30;2.80;;;;;;;20.37;63.44;98836.66;104728;1279;138990;-66
2022/07/10 06:39:25;;;;;;;4.20;3.30;;;;;;;20.35;63.87;98830.95;104703;1279;24331;-66
2022/07/10 06:41:52;;;;;;;3.80;2.80;;;;;;;20.35;64.35;98835.94;105361;1277;22689;-66
2022/07/10 06:44:19;;;;;;;3.40;2.60;;;;;;;20.39;64.46;98832.61;108118;1279;136083;-66
2022/07/10 06:47:55;;;;;;;7.50;3.10;;;;;;;20.43;64.60;98832.96;106851;1279;25426;-65
2022/07/10 06:49:32;;;;;;;4.70;3.50;;;;;;;20.52;64.64;98836.17;104566;1279;139281;-67
2022/07/10 06:51:59;;;;;;;4.60;2.90;;;;;;;20.60;63.87;98828.41;104590;1279;23794;-66
2022/07/10 06:54:36;;;;;;;3.80;2.80;;;;;;;20.62;63.28;98828.03;104529;1279;138527;-66
2022/07/10 06:57:03;;;;;;;4.80;3.00;;;;;;;20.58;63.25;98831.66;104195;1282;22575;-66
2022/07/10 06:59:30;;;;;;;8.10;3.30;;;;;;;20.52;63.61;98827.02;104407;1281;22606;-66
2022/07/10 07:01:57;;;;;;;5.80;2.90;;;;;;;20.51;63.64;98829.80;104425;1281;137911;-66
2022/07/10 07:04:24;;;;;;;6.00;3.30;;;;;;;20.49;63.59;98831.73;104506;1279;22774;-65
2022/07/10 07:06:50;;;;;;;4.60;3.00;;;;;;;20.49;63.91;98828.98;104588;1279;139376;-64
2022/07/10 07:09:17;;;;;;;5.80;3.00;;;;;;;20.50;64.12;98824.47;104585;1279;22584;-64
2022/07/10 07:11:45;;;;;;;5.20;3.00;;;;;;;20.49;64.04;98824.05;104662;1280;22562;-65
2022/07/10 07:14:13;;;;;;;3.40;3.00;;;;;;;20.45;64.00;98821.24;104465;1279;138447;-65
2022/07/10 07:16:44;;;;;;;4.70;3.10;;;;;;;20.43;64.50;98817.54;104622;1279;22583;-65
2022/07/10 07:19:17;;;;;;;6.20;3.10;;;;;;;20.44;64.62;98820.82;104602;1279;137964;-65
2022/07/10 07:24:29;;;;;;;6.80;3.20;;;;;;;20.48;64.36;98817.02;104479;1280;139094;-66
2022/07/10 07:26:56;;;;;;;6.20;3.20;;;;;;;20.48;64.41;98816.59;108857;1280;22490;-66
2022/07/10 07:29:23;;;;;;;6.20;3.00;;;;;;;20.48;64.52;98817.63;108991;1278;22536;-66
2022/07/10 07:31:50;;;;;;;5.30;3.10;;;;;;;20.50;64.81;98815.48;108918;1277;138719;-66
2022/07/10 07:34:17;;;;;;;3.10;2.70;;;;;;;20.55;64.29;98815.27;109056;1277;22943;-66
2022/07/10 07:36:44;;;;;;;6.30;3.50;;;;;;;20.59;64.30;98815.41;106190;1277;138329;-65
2022/07/10 07:39:11;;;;;;;3.90;2.70;;;;;;;20.61;64.26;98817.56;104701;1278;23339;-65
2022/07/10 07:41:37;;;;;;;4.30;3.00;;;;;;;20.64;63.89;98816.70;104809;1280;24919;-65
2022/07/10 07:44:04;;;;;;;4.50;2.90;;;;;;;20.65;63.66;98815.38;104664;1280;137941;-66
2022/07/10 07:46:31;;;;;;;4.20;3.10;;;;;;;20.64;63.66;98818.27;104815;1277;22665;-64
2022/07/10 07:48:58;;;;;;;6.30;3.00;;;;;;;20.64;63.92;98815.88;104712;1277;139430;-65
2022/07/10 07:51:25;;;;;;;5.90;3.40;;;;;;;20.64;63.91;98815.88;104710;1280;22776;-65
2022/07/10 07:53:52;;;;;;;4.80;3.40;;;;;;;20.64;63.79;98814.33;104748;1280;22570;-66
2022/07/10 07:56:18;;;;;;;6.90;3.00;;;;;;;20.64;63.99;98815.42;104575;1280;137204;-66
2022/07/10 07:58:45;;;;;;;11.20;3.90;;;;;;;20.64;64.13;98810.41;104613;1280;24167;-65
2022/07/10 08:01:12;;;;;;;7.70;4.10;;;;;;;20.64;64.52;98813.61;104524;1279;141820;-65
2022/07/10 08:03:39;;;;;;;6.50;4.20;;;;;;;20.65;64.44;98812.23;104672;1279;24924;-65
2022/07/10 08:06:26;;;;;;;4.10;2.90;;;;;;;20.66;64.11;98816.06;104687;1279;139295;-65
2022/07/10 08:08:52;;;;;;;4.10;3.10;;;;;;;20.69;64.14;98815.75;104638;1279;25292;-65
2022/07/10 08:11:19;;;;;;;4.50;3.20;;;;;;;20.71;64.41;98816.73;104674;1279;23990;-66
2022/07/10 08:13:46;;;;;;;4.80;3.30;;;;;;;20.74;63.88;98818.34;104606;1277;138875;-64
2022/07/10 08:16:13;;;;;;;7.00;3.40;;;;;;;20.74;64.06;98813.81;104683;1277;22707;-65
2022/07/10 08:18:40;;;;;;;5.30;2.90;;;;;;;20.77;64.56;98810.74;104642;1278;140499;-64
2022/07/10 08:21:07;;;;;;;3.90;3.10;;;;;;;20.83;64.60;98813.66;104667;1279;25353;-64
2022/07/10 08:23:34;;;;;;;5.60;2.90;;;;;;;20.91;63.98;98815.58;104806;1280;24120;-65
2022/07/10 08:26:01;;;;;;;5.10;3.10;;;;;;;20.95;63.48;98816.19;104708;1279;137843;-66
2022/07/10 08:28:28;;;;;;;5.70;3.20;;;;;;;20.98;63.55;98811.80;104754;1279;22696;-65
2022/07/10 08:30:54;;;;;;;7.30;3.40;;;;;;;21.02;63.63;98808.77;104428;1282;139509;-63
2022/07/10 08:33:21;;;;;;;8.20;3.10;;;;;;;21.08;63.64;98801.19;104585;1281;22620;-65
2022/07/10 08:35:48;;;;;;;4.90;3.40;;;;;;;21.14;63.32;98804.80;104706;1279;25356;-65
2022/07/10 08:38:15;;;;;;;5.90;3.50;;;;;;;21.20;63.43;98804.39;104654;1280;138166;-64
2022/07/10 08:40:42;;;;;;;4.70;3.10;;;;;;;21.28;63.27;98802.66;104739;1279;22569;-65
2022/07/10 08:43:09;;;;;;;5.40;3.40;;;;;;;21.34;62.99;98805.48;104514;1280;137662;-65
2022/07/10 08:45:36;;;;;;;8.10;3.60;;;;;;;21.38;61.76;98802.05;104830;1280;22691;-64
2022/07/10 08:48:05;;;;;;;4.20;3.20;;;;;;;21.40;61.78;98801.41;104631;1279;25732;-64
2022/07/10 08:50:33;;;;;;;6.40;4.00;;;;;;;21.42;61.75;98793.31;108775;1279;137600;-64
2022/07/10 08:53:09;;;;;;;7.40;4.30;;;;;;;21.43;62.10;98796.84;108866;1279;23217;-64
2022/07/10 08:55:36;;;;;;;5.20;3.30;;;;;;;21.48;62.03;98793.75;108851;1279;137420;-64
2022/07/10 08:58:04;;;;;;;5.20;3.00;;;;;;;21.52;61.82;98796.09;109062;1279;22465;-65
2022/07/10 09:00:31;;;;;;;4.60;3.30;;;;;;;21.58;61.70;98790.80;108895;1279;138712;-66
2022/07/10 09:02:57;;;;;;;10.40;7.80;;;;;;;21.64;61.20;98795.20;108832;1279;22409;-65
2022/07/10 09:05:25;;;;;;;4.90;3.40;;;;;;;21.70;61.45;98793.23;108881;1279;22534;-64
2022/07/10 09:07:55;;;;;;;3.20;2.90;;;;;;;21.74;60.99;98790.27;108618;1281;137782;-63
2022/07/10 09:10:26;;;;;;;6.50;3.90;;;;;;;21.78;60.73;98792.63;108883;1279;22516;-66
2022/07/10 09:12:58;;;;;;;8.00;3.50;;;;;;;21.84;60.58;98790.66;108752;1277;139223;-64
2022/07/10 09:15:26;;;;;;;4.90;3.90;;;;;;;21.92;59.53;98788.05;108596;1280;22572;-68
2022/07/10 09:17:58;;;;;;;7.40;3.40;;;;;;;21.97;59.65;98784.77;109013;1280;23571;-65
2022/07/10 09:20:29;;;;;;;30.00;3.50;;;;;;;22.03;59.54;98789.05;108919;1278;139018;-63
2022/07/10 09:22:57;;;;;;;3.10;2.70;;;;;;;22.11;59.29;98783.79;109079;1277;22403;-64
2022/07/10 09:25:32;;;;;;;4.40;3.00;;;;;;;22.18;58.76;98788.48;108976;1277;137542;-65
2022/07/10 09:28:01;;;;;;;3.80;2.40;;;;;;;22.21;58.44;98785.70;107206;1278;22553;-63
2022/07/10 09:30:35;;;;;;;3.10;2.40;;;;;;;22.22;58.36;98785.30;107351;1280;138366;-61
2022/07/10 09:33:25;;;;;;;4.50;2.60;;;;;;;22.22;58.34;98781.34;105718;1278;24386;-63
2022/07/10 09:36:05;;;;;;;3.50;2.90;;;;;;;22.19;58.40;98778.05;106541;1278;23475;-63
2022/07/10 09:38:44;;;;;;;6.00;3.40;;;;;;;22.17;58.21;98776.94;105786;1280;136067;-60
2022/07/10 09:41:12;;;;;;;4.40;2.90;;;;;;;22.14;58.10;98779.79;105110;1279;22633;-64
2022/07/10 09:43:45;;;;;;;7.10;2.80;;;;;;;22.09;57.63;98780.50;104756;1280;138369;-62
2022/07/10 09:46:13;;;;;;;5.70;2.30;;;;;;;21.99;57.58;98772.36;108943;1279;23204;-62
2022/07/10 09:48:40;;;;;;;4.60;2.60;;;;;;;21.96;58.49;98770.23;108924;1279;137494;-62
2022/07/10 09:51:09;;;;;;;2.80;2.50;;;;;;;21.97;58.86;98766.33;108974;1279;22542;-61
2022/07/10 09:53:43;;;;;;;3.20;2.40;;;;;;;22.03;58.28;98766.60;109031;1279;22489;-62
2022/07/10 09:56:11;;;;;;;4.70;2.50;;;;;;;22.06;57.80;98764.73;108914;1279;138387;-62
2022/07/10 09:58:39;;;;;;;4.00;2.30;;;;;;;22.06;57.83;98763.69;108998;1279;22468;-62
2022/07/10 10:01:07;;;;;;;3.60;2.30;;;;;;;22.05;57.25;98767.23;108889;1279;139205;-62
2022/07/10 10:03:36;;;;;;;3.80;2.10;;;;;;;22.02;56.87;98765.55;108947;1279;22567;-62
2022/07/10 10:06:10;;;;;;;3.50;2.20;;;;;;;21.99;56.64;98764.39;108820;1279;22590;-62
2022/07/10 10:09:18;;;;;;;2.60;2.40;;;;;;;22.00;57.20;98763.52;109039;1279;23305;-64
2022/07/10 10:11:45;;;;;;;2.50;2.10;;;;;;;22.11;57.21;98763.66;108154;1285;22531;-66
2022/07/10 10:14:12;;;;;;;3.60;2.50;;;;;;;22.19;57.10;98765.09;108011;1285;139885;-65
2022/07/10 10:16:39;;;;;;;2.50;2.30;;;;;;;22.30;57.21;98759.52;105903;1285;22848;-64
2022/07/10 10:21:53;;;;;;;6.80;3.20;;;;;;;22.45;56.89;98757.71;104104;1286;24138;-65
2022/07/10 10:24:20;;;;;;;2.50;2.20;;;;;;;22.44;56.37;98757.08;103911;1287;138471;-65
2022/07/10 10:26:47;;;;;;;2.30;1.90;;;;;;;22.40;56.58;98758.76;104098;1286;22584;-64
2022/07/10 10:29:14;;;;;;;5.30;2.00;;;;;;;22.35;56.43;98756.90;104150;1286;23514;-64
2022/07/10 10:31:42;;;;;;;4.50;2.40;;;;;;;22.27;56.22;98759.67;103870;1286;137838;-65
2022/07/10 10:34:09;;;;;;;2.70;1.70;;;;;;;22.21;56.15;98757.54;107941;1287;23490;-65
2022/07/10 10:36:45;;;;;;;1.90;1.70;;;;;;;22.17;55.15;98753.80;108257;1285;138375;-65
2022/07/10 10:39:21;;;;;;;3.30;1.70;;;;;;;22.13;54.87;98753.35;108204;1285;22903;-65
2022/07/10 10:41:51;;;;;;;48.40;43.20;;;;;;;22.13;54.70;98756.83;108249;1283;22482;-64
2022/07/10 10:44:18;;;;;;;3.90;3.10;;;;;;;22.17;54.05;98748.47;108681;1279;138277;-64
2022/07/10 10:46:53;;;;;;;3.00;2.20;;;;;;;22.21;53.64;98741.77;105957;1279;25478;-64
2022/07/10 10:49:20;;;;;;;5.20;2.00;;;;;;;22.23;53.60;98731.80;104502;1281;137674;-62
2022/07/10 10:52:03;;;;;;;3.10;2.10;;;;;;;22.29;53.50;98736.73;104587;1279;24963;-62
2022/07/10 10:54:31;;;;;;;3.30;2.60;;;;;;;22.34;53.74;98732.23;104438;1281;137541;-66
2022/07/10 10:57:11;;;;;;;7.90;4.30;;;;;;;22.42;53.29;98729.19;104632;1279;25442;-65
2022/07/10 10:59:48;;;;;;;2.40;1.80;;;;;;;22.48;52.98;98723.56;104699;1279;22598;-62
2022/07/10 11:02:32;;;;;;;2.00;1.60;;;;;;;22.54;52.85;98724.18;104483;1281;138407;-61
2022/07/10 11:05:12;;;;;;;2.60;1.70;;;;;;;22.59;52.21;98720.80;109103;1277;22451;-63
2022/07/10 11:08:01;;;;;;;2.70;1.80;;;;;;;22.62;53.39;98715.18;108937;1278;137617;-64
2022/07/10 11:10:41;;;;;;;1.90;1.70;;;;;;;22.69;53.79;98714.25;109062;1279;23300;-63
2022/07/10 11:13:15;;;;;;;3.10;1.90;;;;;;;22.77;52.85;98712.19;109015;1277;137771;-63
2022/07/10 11:15:48;;;;;;;4.20;1.80;;;;;;;22.83;52.60;98713.52;108876;1279;22419;-63
2022/07/10 11:18:16;;;;;;;3.90;1.70;;;;;;;22.87;52.95;98719.90;108827;1279;137461;-64
2022/07/10 11:20:46;;;;;;;1.60;1.50;;;;;;;22.93;52.76;98709.55;108865;1279;23049;-63
2022/07/10 11:24:04;;;;;;;5.90;2.20;;;;;;;23.01;52.47;98711.27;108997;1279;22443;-62
2022/07/10 11:26:43;;;;;;;3.30;2.00;;;;;;;23.11;51.11;98708.25;108320;1283;137144;-63
2022/07/10 11:29:09;;;;;;;2.90;1.80;;;;;;;23.14;50.48;98703.79;108343;1284;22552;-63
2022/07/10 11:31:44;;;;;;;3.10;1.70;;;;;;;23.19;51.30;98708.52;108371;1283;138433;-63
2022/07/10 11:34:11;;;;;;;1.70;1.60;;;;;;;23.25;51.22;98706.54;108448;1284;23524;-64
2022/07/10 11:36:38;;;;;;;3.00;1.70;;;;;;;23.32;51.39;98708.27;108314;1284;139245;-63
2022/07/10 11:39:07;;;;;;;2.10;1.70;;;;;;;23.38;50.63;98710.70;108484;1283;22300;-64